createdAt,value
2022-08-05T00:01:20.896Z,97579.22
2022-08-05T00:04:34.404Z,97591.38
2022-08-05T00:08:00.047Z,97580.00
2022-08-05T00:11:20.245Z,97580.22
2022-08-05T00:14:34.163Z,97579.59
2022-08-05T00:17:56.783Z,97579.22
2022-08-05T00:21:19.487Z,97578.25
2022-08-05T00:24:30.609Z,97570.44
2022-08-05T00:27:52.778Z,97568.03
2022-08-05T00:31:04.305Z,97566.16
2022-08-05T00:34:56.128Z,97572.53
2022-08-05T00:37:51.222Z,97570.97
2022-08-05T00:41:13.428Z,97570.56
2022-08-05T00:44:18.150Z,97572.53
2022-08-05T00:47:25.488Z,97569.56
2022-08-05T00:50:28.921Z,97563.94
2022-08-05T00:54:01.139Z,97562.94
2022-08-05T00:56:55.621Z,97560.81
2022-08-05T00:59:59.024Z,97555.06
2022-08-05T01:03:03.673Z,97563.63
2022-08-05T01:06:15.320Z,97558.00
2022-08-05T01:09:20.253Z,97561.00
2022-08-05T01:12:29.784Z,97550.41
2022-08-05T01:15:41.036Z,97547.59
2022-08-05T01:18:56.562Z,97551.41
2022-08-05T01:22:15.360Z,97543.81
2022-08-05T01:25:53.132Z,97548.47
2022-08-05T01:29:05.418Z,97546.94
2022-08-05T01:32:18.705Z,97542.66
2022-08-05T01:35:52.080Z,97545.47
2022-08-05T01:38:51.703Z,97543.66
2022-08-05T01:41:56.957Z,97536.38
2022-08-05T01:45:03.209Z,97533.94
2022-08-05T01:48:10.222Z,97537.22
2022-08-05T01:51:16.125Z,97541.47
2022-08-05T01:54:23.652Z,97540.81
2022-08-05T01:58:10.129Z,97538.50
2022-08-05T02:01:01.237Z,97542.97
2022-08-05T02:04:06.412Z,97538.16
2022-08-05T02:07:10.021Z,97544.28
2022-08-05T02:10:17.441Z,97553.53
2022-08-05T02:13:28.704Z,97531.38
2022-08-05T02:16:55.681Z,97542.81
2022-08-05T02:20:03.326Z,97555.53
2022-08-05T02:23:12.030Z,97559.81
2022-08-05T02:26:23.235Z,97547.22
2022-08-05T02:29:58.749Z,97555.78
2022-08-05T02:32:59.862Z,97555.63
2022-08-05T02:36:06.229Z,97551.00
2022-08-05T02:39:16.759Z,97548.28
2022-08-05T02:42:27.349Z,97550.78
2022-08-05T02:45:51.423Z,97558.53
2022-08-05T02:48:58.790Z,97556.88
2022-08-05T02:52:04.804Z,97537.72
2022-08-05T02:55:12.233Z,97558.47
2022-08-05T02:58:17.064Z,97553.31
2022-08-05T03:01:27.053Z,97540.53
2022-08-05T03:04:32.721Z,97537.38
2022-08-05T03:08:00.192Z,97546.53
2022-08-05T03:11:56.702Z,97532.53
2022-08-05T03:14:24.631Z,97532.16
2022-08-05T03:17:29.873Z,97529.25
2022-08-05T03:20:34.841Z,97604.56
2022-08-05T03:23:40.538Z,97624.69
2022-08-05T03:26:45.706Z,97623.50
2022-08-05T03:30:07.296Z,97611.94
2022-08-05T03:34:41.628Z,97598.53
2022-08-05T03:37:46.903Z,97599.69
2022-08-05T03:40:50.441Z,97591.75
2022-08-05T03:44:08.201Z,97605.28
2022-08-05T03:47:14.806Z,97600.63
2022-08-05T03:50:21.403Z,97595.84
2022-08-05T03:55:51.847Z,97589.56
2022-08-05T03:56:58.922Z,97594.69
2022-08-05T04:00:08.089Z,97601.59
2022-08-05T04:03:26.741Z,97606.88
2022-08-05T04:06:34.836Z,97603.09
2022-08-05T04:09:39.678Z,97588.78
2022-08-05T04:12:58.780Z,97606.59
2022-08-05T04:16:04.750Z,97610.06
2022-08-05T04:19:12.049Z,97605.28
2022-08-05T04:22:21.230Z,97600.47
2022-08-05T04:25:56.491Z,97596.97
2022-08-05T04:28:51.185Z,97605.97
2022-08-05T04:31:56.832Z,97601.16
2022-08-05T04:35:00.371Z,97615.41
2022-08-05T04:38:06.861Z,97607.78
2022-08-05T04:41:10.416Z,97608.31
2022-08-05T04:44:13.874Z,97610.78
2022-08-05T04:47:20.048Z,97613.56
2022-08-05T04:50:37.140Z,97608.63
2022-08-05T04:53:49.155Z,97611.25
2022-08-05T04:56:55.298Z,97617.88
2022-08-05T05:00:02.199Z,97620.22
2022-08-05T05:03:06.818Z,97620.53
2022-08-05T05:06:36.507Z,97626.47
2022-08-05T05:09:37.320Z,97635.25
2022-08-05T05:12:41.477Z,97640.03
2022-08-05T05:15:57.004Z,97644.34
2022-08-05T05:19:18.570Z,97649.63
2022-08-05T05:22:26.482Z,97667.19
2022-08-05T05:25:32.580Z,97677.09
2022-08-05T05:28:45.056Z,97671.97
2022-08-05T05:31:48.783Z,97694.81
2022-08-05T05:34:54.711Z,97694.63
2022-08-05T05:38:02.203Z,97695.28
2022-08-05T05:41:07.615Z,97692.63
2022-08-05T05:44:36.007Z,97700.22
2022-08-05T05:48:06.886Z,97688.59
2022-08-05T05:51:20.561Z,97676.66
2022-08-05T05:54:49.750Z,97676.63
2022-08-05T05:57:52.326Z,97693.19
2022-08-05T06:00:56.374Z,97693.16
2022-08-05T06:04:03.553Z,97695.34
2022-08-05T06:07:07.426Z,97706.38
2022-08-05T06:10:14.541Z,97715.81
2022-08-05T06:13:20.423Z,97731.13
2022-08-05T06:16:29.541Z,97747.13
2022-08-05T06:19:35.858Z,97799.09
2022-08-05T06:22:40.544Z,97778.94
2022-08-05T06:26:12.356Z,97795.38
2022-08-05T06:29:25.126Z,97783.59
2022-08-05T06:32:34.643Z,97781.69
2022-08-05T06:36:07.601Z,97752.16
2022-08-05T06:39:02.378Z,97787.53
2022-08-05T06:42:07.377Z,97804.47
2022-08-05T06:45:21.226Z,97817.97
2022-08-05T06:48:47.335Z,97827.09
2022-08-05T06:51:48.443Z,97831.66
2022-08-05T06:54:52.171Z,97840.91
2022-08-05T06:58:20.411Z,97847.66
2022-08-05T07:01:21.936Z,97856.06
2022-08-05T07:04:26.422Z,97882.06
2022-08-05T07:07:35.544Z,97864.91
2022-08-05T07:10:53.393Z,97875.78
2022-08-05T07:14:20.106Z,97883.09
2022-08-05T07:17:59.397Z,97880.88
2022-08-05T07:20:48.902Z,97878.91
2022-08-05T07:23:53.494Z,97881.16
2022-08-05T07:26:56.993Z,97893.06
2022-08-05T07:30:22.053Z,97884.94
2022-08-05T07:33:35.115Z,97889.63
2022-08-05T07:36:41.124Z,97884.72
2022-08-05T07:40:26.950Z,97882.97
2022-08-05T07:43:20.217Z,97879.94
2022-08-05T07:46:26.266Z,97880.91
2022-08-05T07:49:31.563Z,97891.88
2022-08-05T07:52:54.989Z,97884.88
2022-08-05T07:56:06.540Z,97885.59
2022-08-05T07:59:31.376Z,97891.13
2022-08-05T08:03:14.141Z,97889.56
2022-08-05T08:06:09.332Z,97887.59
2022-08-05T08:09:14.864Z,97885.25
2022-08-05T08:12:36.993Z,97892.28
2022-08-05T08:16:49.709Z,97899.50
2022-08-05T08:19:05.918Z,97871.78
2022-08-05T08:22:15.906Z,97897.25
2022-08-05T08:25:27.012Z,97894.16
2022-08-05T08:28:55.053Z,97904.53
2022-08-05T08:32:02.985Z,97917.06
2022-08-05T08:35:13.511Z,97907.00
2022-08-05T08:38:18.480Z,97906.06
2022-08-05T08:41:52.326Z,97912.88
2022-08-05T08:45:22.191Z,97915.13
2022-08-05T08:49:03.078Z,97909.91
2022-08-05T08:52:03.671Z,97916.72
2022-08-05T08:55:13.433Z,97902.34
2022-08-05T08:58:17.767Z,97921.88
2022-08-05T09:01:21.570Z,97907.03
2022-08-05T09:04:30.522Z,97919.16
2022-08-05T09:07:39.504Z,97928.75
2022-08-05T09:10:46.816Z,97916.94
2022-08-05T09:14:09.683Z,97900.25
2022-08-05T09:17:39.913Z,97910.19
2022-08-05T09:20:38.377Z,97908.53
2022-08-05T09:23:43.766Z,97902.22
2022-08-05T09:26:56.234Z,97897.16
2022-08-05T09:30:06.458Z,97904.97
2022-08-05T09:34:55.774Z,97911.97
2022-08-05T09:38:16.935Z,97908.47
2022-08-05T09:41:22.468Z,97904.34
2022-08-05T09:44:36.626Z,97879.06
2022-08-05T09:47:55.070Z,97902.44
2022-08-05T09:51:02.781Z,97894.59
2022-08-05T09:54:09.467Z,97888.03
2022-08-05T09:57:29.958Z,97883.16
2022-08-05T10:00:39.250Z,97889.69
2022-08-05T10:03:59.345Z,97879.66
2022-08-05T10:07:20.389Z,97885.75
2022-08-05T10:10:33.466Z,97873.28
2022-08-05T10:13:47.546Z,97876.78
2022-08-05T10:16:56.363Z,97869.94
2022-08-05T10:20:04.042Z,97850.50
2022-08-05T10:23:34.743Z,97871.63
2022-08-05T10:26:46.677Z,97862.13
2022-08-05T10:30:06.652Z,97863.63
2022-08-05T10:33:19.651Z,97866.59
2022-08-05T10:36:26.083Z,97869.47
2022-08-05T10:40:03.235Z,97828.47
2022-08-05T10:43:12.423Z,97851.69
2022-08-05T10:46:17.407Z,97847.00
2022-08-05T10:49:27.506Z,97850.31
2022-08-05T10:52:49.516Z,97848.59
2022-08-05T10:56:21.024Z,97850.28
2022-08-05T11:00:03.740Z,97838.34
2022-08-05T11:03:23.424Z,97839.75
2022-08-05T11:06:30.730Z,97840.69
2022-08-05T11:09:46.263Z,97828.31
2022-08-05T11:12:55.277Z,97830.88
2022-08-05T11:16:23.252Z,97825.50
2022-08-05T11:20:11.182Z,97821.31
2022-08-05T11:23:33.320Z,97836.53
2022-08-05T11:27:26.462Z,97830.94
2022-08-05T11:31:54.275Z,97834.75
2022-08-05T11:34:47.564Z,97806.03
2022-08-05T11:38:30.692Z,97839.00
2022-08-05T11:41:58.205Z,97840.03
2022-08-05T11:44:55.978Z,97842.06
2022-08-05T11:48:14.665Z,97841.06
2022-08-05T11:51:44.207Z,97839.19
2022-08-05T11:54:56.434Z,97830.19
2022-08-05T11:58:10.028Z,97842.13
2022-08-05T12:01:24.139Z,97828.50
2022-08-05T12:04:41.288Z,97838.34
2022-08-05T12:08:03.142Z,97827.75
2022-08-05T12:11:17.226Z,97820.59
2022-08-05T12:14:26.157Z,97832.56
2022-08-05T12:18:04.425Z,97835.00
2022-08-05T12:21:12.878Z,97822.53
2022-08-05T12:24:22.120Z,97831.00
2022-08-05T12:27:32.845Z,97814.59
2022-08-05T12:30:45.962Z,97816.28
2022-08-05T12:33:50.205Z,97818.09
2022-08-05T12:36:54.945Z,97828.09
2022-08-05T12:40:03.181Z,97824.09
2022-08-05T12:43:08.418Z,97813.53
2022-08-05T12:46:26.429Z,97811.19
2022-08-05T12:50:04.070Z,97811.84
2022-08-05T12:53:08.338Z,97815.13
2022-08-05T12:56:33.987Z,97812.94
2022-08-05T13:01:58.539Z,97805.84
2022-08-05T13:03:12.334Z,97816.44
2022-08-05T13:06:19.784Z,97801.47
2022-08-05T13:09:27.926Z,97805.56
2022-08-05T13:12:33.381Z,97793.91
2022-08-05T13:15:52.126Z,97790.34
2022-08-05T13:18:57.773Z,97793.53
2022-08-05T13:22:02.298Z,97783.91
2022-08-05T13:25:18.824Z,97736.78
2022-08-05T13:28:24.357Z,97789.72
2022-08-05T13:31:33.723Z,97770.16
2022-08-05T13:34:53.137Z,97776.06
2022-08-05T13:37:56.515Z,97777.47
2022-08-05T13:41:08.484Z,97773.13
2022-08-05T13:44:13.248Z,97768.34
2022-08-05T13:47:35.982Z,97763.44
2022-08-05T13:50:41.228Z,97767.75
2022-08-05T13:53:48.505Z,97768.13
2022-08-05T13:56:52.209Z,97755.91
2022-08-05T13:59:59.483Z,97750.44
2022-08-05T14:03:12.496Z,97736.47
2022-08-05T14:06:25.659Z,97738.91
2022-08-05T14:09:30.374Z,97748.88
2022-08-05T14:12:34.382Z,97735.75
2022-08-05T14:16:07.314Z,97731.63
2022-08-05T14:19:04.392Z,97728.81
2022-08-05T14:22:12.156Z,97728.53
2022-08-05T14:25:21.499Z,97738.78
2022-08-05T14:28:26.740Z,97730.16
2022-08-05T14:32:03.296Z,97733.09
2022-08-05T14:34:56.784Z,97731.31
2022-08-05T14:38:01.086Z,97723.25
2022-08-05T14:41:07.421Z,97735.66
2022-08-05T14:44:20.574Z,97729.34
2022-08-05T14:48:03.916Z,97731.56
2022-08-05T14:50:50.046Z,97735.66
2022-08-05T14:54:26.164Z,97736.78
2022-08-05T14:57:16.999Z,97731.09
2022-08-05T15:00:21.483Z,97715.69
2022-08-05T15:03:39.144Z,97728.63
2022-08-05T15:06:49.592Z,97707.53
2022-08-05T15:09:54.193Z,97730.78
2022-08-05T15:13:04.189Z,97738.53
2022-08-05T15:16:08.043Z,97730.72
2022-08-05T15:19:23.817Z,97740.97
2022-08-05T15:22:28.116Z,97726.69
2022-08-05T15:25:51.205Z,97720.91
2022-08-05T15:28:55.519Z,97747.06
2022-08-05T15:34:40.929Z,97751.75
2022-08-05T15:38:33.876Z,97755.41
2022-08-05T15:41:23.358Z,97756.75
2022-08-05T15:44:28.048Z,97756.19
2022-08-05T15:47:35.710Z,97752.84
2022-08-05T15:50:40.790Z,97762.38
2022-08-05T15:53:50.279Z,97754.22
2022-08-05T15:56:55.330Z,97771.75
2022-08-05T15:59:59.069Z,97769.13
2022-08-05T16:03:08.285Z,97776.59
2022-08-05T16:06:13.407Z,97716.38
2022-08-05T16:09:16.802Z,97786.13
2022-08-05T16:12:25.747Z,97777.19
2022-08-05T16:15:32.610Z,97782.63
2022-08-05T16:18:52.692Z,97785.97
2022-08-05T16:21:58.960Z,97787.19
2022-08-05T16:25:05.278Z,97790.88
2022-08-05T16:28:15.602Z,97793.00
2022-08-05T16:31:19.311Z,97799.91
2022-08-05T16:34:25.812Z,97807.16
2022-08-05T16:38:11.960Z,97797.97
2022-08-05T16:41:02.490Z,97753.72
2022-08-05T16:44:26.180Z,97795.09
2022-08-05T16:47:36.223Z,97809.28
2022-08-05T16:50:52.442Z,97809.19
2022-08-05T16:54:04.808Z,97791.22
2022-08-05T16:57:15.053Z,97807.63
2022-08-05T17:00:34.890Z,97812.25
2022-08-05T17:03:41.418Z,97813.16
2022-08-05T17:06:44.944Z,97818.94
2022-08-05T17:09:59.278Z,97813.44
2022-08-05T17:13:03.052Z,97838.69
2022-08-05T17:16:27.963Z,97847.78
2022-08-05T17:19:31.003Z,97842.03
2022-08-05T17:22:34.621Z,97843.28
2022-08-05T17:25:42.278Z,97835.47
2022-08-05T17:28:47.187Z,97830.72
2022-08-05T17:31:58.509Z,97844.56
2022-08-05T17:35:02.754Z,97816.00
2022-08-05T17:38:08.838Z,97848.44
2022-08-05T17:42:18.519Z,97858.25
2022-08-05T17:44:37.501Z,97865.34
2022-08-05T17:47:41.179Z,97870.53
2022-08-05T17:50:44.939Z,97867.06
2022-08-05T17:53:50.780Z,97877.69
2022-08-05T17:57:02.646Z,97873.97
2022-08-05T18:00:07.519Z,97895.72
2022-08-05T18:03:11.121Z,97897.84
2022-08-05T18:06:15.509Z,97897.25
2022-08-05T18:09:19.292Z,97911.78
2022-08-05T18:12:24.732Z,97919.44
2022-08-05T18:15:34.242Z,97919.25
2022-08-05T18:18:39.664Z,97934.38
2022-08-05T18:22:08.806Z,97925.50
2022-08-05T18:25:08.121Z,97932.75
2022-08-05T18:28:16.071Z,97931.28
2022-08-05T18:31:19.906Z,97936.44
2022-08-05T18:34:23.177Z,97925.69
2022-08-05T18:37:43.097Z,97929.22
2022-08-05T18:41:54.955Z,97881.91
2022-08-05T18:44:11.306Z,97945.56
2022-08-05T18:47:16.599Z,97944.97
2022-08-05T18:50:44.829Z,97963.63
2022-08-05T18:53:50.771Z,97948.13
2022-08-05T18:56:54.127Z,97964.28
2022-08-05T19:00:04.108Z,97961.31
2022-08-05T19:03:15.197Z,97958.00
2022-08-05T19:06:22.034Z,97960.66
2022-08-05T19:09:39.059Z,97968.00
2022-08-05T19:12:46.275Z,97976.63
2022-08-05T19:15:58.260Z,97984.19
2022-08-05T19:19:04.233Z,97986.16
2022-08-05T19:22:08.275Z,97992.81
2022-08-05T19:25:21.536Z,97998.16
2022-08-05T19:28:33.757Z,98015.34
2022-08-05T19:31:44.825Z,98023.00
2022-08-05T19:34:55.871Z,98020.09
2022-08-05T19:38:06.523Z,98027.06
2022-08-05T19:41:12.255Z,98029.91
2022-08-05T19:44:16.450Z,98036.44
2022-08-05T19:47:21.958Z,98043.97
2022-08-05T19:50:26.841Z,98045.13
2022-08-05T19:54:05.347Z,98053.78
2022-08-05T19:56:54.808Z,98050.75
2022-08-05T20:00:01.711Z,98066.34
2022-08-05T20:03:16.314Z,98061.03
2022-08-05T20:06:28.633Z,98067.00
2022-08-05T20:09:54.687Z,98055.00
2022-08-05T20:12:56.011Z,98065.22
2022-08-05T20:15:59.820Z,98068.88
2022-08-05T20:19:04.993Z,98050.13
2022-08-05T20:22:09.553Z,98072.97
2022-08-05T20:25:13.141Z,98083.06
2022-08-05T20:28:16.946Z,98083.34
2022-08-05T20:31:21.727Z,98058.88
2022-08-05T20:34:27.959Z,98076.84
2022-08-05T20:38:06.274Z,98099.56
2022-08-05T20:40:55.499Z,98095.09
2022-08-05T20:44:17.435Z,98103.50
2022-08-05T20:47:21.411Z,98119.38
2022-08-05T20:50:40.913Z,98130.56
2022-08-05T20:53:55.080Z,98139.78
2022-08-05T20:56:59.885Z,98151.84
2022-08-05T21:00:20.722Z,98186.78
2022-08-05T21:03:34.209Z,98202.16
2022-08-05T21:06:45.632Z,98216.84
2022-08-05T21:09:53.778Z,98233.81
2022-08-05T21:13:11.251Z,98243.72
2022-08-05T21:16:18.250Z,98247.13
2022-08-05T21:19:23.461Z,98243.34
2022-08-05T21:22:28.649Z,98251.78
2022-08-05T21:25:34.064Z,98248.06
2022-08-05T21:28:37.585Z,98240.13
2022-08-05T21:34:40.967Z,98320.59
2022-08-05T21:37:53.052Z,98313.22
2022-08-05T21:40:58.273Z,98276.88
2022-08-05T21:44:04.437Z,98249.41
2022-08-05T21:47:32.828Z,98294.25
2022-08-05T21:50:33.789Z,98335.97
2022-08-05T21:53:40.115Z,98341.84
2022-08-05T21:56:44.612Z,98333.72
2022-08-05T22:00:06.041Z,98313.44
2022-08-05T22:03:15.862Z,98284.69
2022-08-05T22:06:35.139Z,98332.34
2022-08-05T22:09:46.401Z,98391.91
2022-08-05T22:12:51.886Z,98386.03
2022-08-05T22:16:02.431Z,98340.22
2022-08-05T22:19:57.299Z,98341.75
2022-08-05T22:22:56.706Z,98364.53
2022-08-05T22:26:18.862Z,98434.03
2022-08-05T22:29:26.145Z,98439.75
2022-08-05T22:32:30.439Z,98417.91
2022-08-05T22:35:48.055Z,98377.06
2022-08-05T22:38:53.968Z,98381.94
2022-08-05T22:42:11.315Z,98386.56
2022-08-05T22:45:16.705Z,98460.28
2022-08-05T22:48:22.209Z,98469.06
2022-08-05T22:52:04.937Z,98464.56
2022-08-05T22:54:55.577Z,98475.13
2022-08-05T22:57:59.413Z,98477.78
2022-08-05T23:01:02.842Z,98476.25
2022-08-05T23:04:10.052Z,98465.31
2022-08-05T23:07:13.645Z,98478.94
2022-08-05T23:10:23.626Z,98486.09
2022-08-05T23:13:27.056Z,98491.03
2022-08-05T23:16:52.139Z,98497.63
2022-08-05T23:19:57.930Z,98493.00
2022-08-05T23:23:05.951Z,98495.13
2022-08-05T23:26:13.080Z,98495.03
2022-08-05T23:29:19.446Z,98408.78
2022-08-05T23:32:23.241Z,98448.19
2022-08-05T23:35:34.079Z,98482.94
2022-08-05T23:38:37.539Z,98510.34
2022-08-05T23:41:48.802Z,98506.88
2022-08-05T23:44:54.468Z,98500.31
2022-08-05T23:47:59.325Z,98502.22
2022-08-05T23:51:03.032Z,98519.94
2022-08-05T23:54:06.336Z,98508.69
2022-08-05T23:57:16.719Z,98512.47
